createdAt,value
2023-04-19T00:01:02.245Z,63.65
2023-04-19T00:03:30.914Z,64.01
2023-04-19T00:05:57.604Z,63.97
2023-04-19T00:08:24.197Z,64.30
2023-04-19T00:10:50.760Z,64.20
2023-04-19T00:13:17.446Z,64.34
2023-04-19T00:15:44.034Z,64.92
2023-04-19T00:18:10.568Z,64.99
2023-04-19T00:20:38.519Z,64.83
2023-04-19T00:23:05.061Z,64.92
2023-04-19T00:25:31.679Z,65.04
2023-04-19T00:27:58.191Z,64.89
2023-04-19T00:30:24.778Z,65.12
2023-04-19T00:32:51.492Z,65.47
2023-04-19T00:35:18.511Z,65.72
2023-04-19T00:37:47.400Z,66.14
2023-04-19T00:40:14.210Z,65.76
2023-04-19T00:42:40.804Z,65.72
2023-04-19T00:45:08.456Z,65.95
2023-04-19T00:47:36.719Z,66.19
2023-04-19T00:50:04.611Z,66.16
2023-04-19T00:52:33.079Z,66.18
2023-04-19T00:55:01.876Z,66.54
2023-04-19T00:57:29.448Z,66.82
2023-04-19T00:59:57.431Z,66.63
2023-04-19T01:02:24.093Z,66.57
2023-04-19T01:04:51.357Z,66.61
2023-04-19T01:07:19.325Z,67.13
2023-04-19T01:09:46.388Z,66.96
2023-04-19T01:12:14.327Z,67.97
2023-04-19T01:14:42.924Z,68.11
2023-04-19T01:17:09.717Z,68.23
2023-04-19T01:19:36.602Z,68.75
2023-04-19T01:22:03.186Z,69.22
2023-04-19T01:24:31.146Z,69.58
2023-04-19T01:26:57.732Z,69.91
2023-04-19T01:29:24.603Z,70.57
2023-04-19T01:31:51.216Z,70.54
2023-04-19T01:34:17.740Z,71.07
2023-04-19T01:36:44.324Z,71.43
2023-04-19T01:39:12.139Z,71.87
2023-04-19T01:41:41.287Z,72.20
2023-04-19T01:44:09.548Z,72.34
2023-04-19T01:46:37.126Z,72.44
2023-04-19T01:49:03.692Z,72.96
2023-04-19T01:51:30.331Z,73.01
2023-04-19T01:53:56.952Z,73.10
2023-04-19T01:56:23.547Z,73.44
2023-04-19T01:58:51.478Z,73.92
2023-04-19T02:01:18.127Z,74.09
2023-04-19T02:03:44.872Z,75.04
2023-04-19T02:06:12.488Z,75.62
2023-04-19T02:08:39.061Z,76.05
2023-04-19T02:11:07.236Z,75.98
2023-04-19T02:13:33.902Z,76.04
2023-04-19T02:16:01.851Z,76.28
2023-04-19T02:18:28.743Z,76.22
2023-04-19T02:20:56.837Z,76.40
2023-04-19T02:23:23.407Z,76.26
2023-04-19T02:25:50.492Z,76.58
2023-04-19T02:28:17.193Z,76.60
2023-04-19T02:30:44.175Z,77.13
2023-04-19T02:33:12.139Z,77.09
2023-04-19T02:35:38.714Z,77.77
2023-04-19T02:38:05.291Z,77.49
2023-04-19T02:40:32.073Z,77.42
2023-04-19T02:42:59.048Z,78.03
2023-04-19T02:45:25.620Z,78.28
2023-04-19T02:47:54.685Z,78.56
2023-04-19T02:50:22.822Z,78.64
2023-04-19T02:52:50.817Z,78.70
2023-04-19T02:55:19.077Z,78.80
2023-04-19T02:57:48.564Z,79.15
2023-04-19T03:00:16.112Z,79.07
2023-04-19T03:02:52.012Z,79.64
2023-04-19T03:05:19.118Z,79.62
2023-04-19T03:07:47.020Z,79.61
2023-04-19T03:10:13.861Z,79.70
2023-04-19T03:12:40.446Z,80.10
2023-04-19T03:15:08.490Z,80.17
2023-04-19T03:17:35.099Z,80.47
2023-04-19T03:20:01.828Z,80.09
2023-04-19T03:22:29.385Z,80.32
2023-04-19T03:24:57.352Z,80.37
2023-04-19T03:27:24.230Z,80.50
2023-04-19T03:29:57.163Z,80.81
2023-04-19T03:32:24.520Z,80.70
2023-04-19T03:34:51.134Z,81.18
2023-04-19T03:37:17.925Z,81.36
2023-04-19T03:39:45.200Z,81.52
2023-04-19T03:42:16.865Z,81.16
2023-04-19T03:45:02.127Z,81.14
2023-04-19T03:47:31.093Z,81.05
2023-04-19T03:49:58.289Z,80.65
2023-04-19T03:52:24.936Z,80.55
2023-04-19T03:54:52.052Z,80.19
2023-04-19T03:57:41.264Z,80.09
2023-04-19T04:00:16.968Z,80.03
2023-04-19T04:02:51.884Z,79.82
2023-04-19T04:05:19.187Z,80.05
2023-04-19T04:07:45.833Z,79.55
2023-04-19T04:10:12.637Z,78.86
2023-04-19T04:12:43.868Z,78.77
2023-04-19T04:15:15.004Z,78.26
2023-04-19T04:17:47.268Z,77.89
2023-04-19T04:20:14.038Z,78.12
2023-04-19T04:22:41.888Z,77.41
2023-04-19T04:25:09.586Z,77.49
2023-04-19T04:27:38.589Z,77.61
2023-04-19T04:30:10.915Z,77.78
2023-04-19T04:32:38.640Z,77.30
2023-04-19T04:35:08.279Z,77.72
2023-04-19T04:37:53.421Z,77.63
2023-04-19T04:40:21.258Z,78.36
2023-04-19T04:42:47.863Z,78.26
2023-04-19T04:45:15.964Z,78.07
2023-04-19T04:47:43.515Z,77.83
2023-04-19T04:50:11.369Z,77.50
2023-04-19T04:52:38.126Z,78.17
2023-04-19T04:55:15.937Z,77.91
2023-04-19T04:57:44.188Z,77.40
2023-04-19T05:00:23.077Z,77.60
2023-04-19T05:02:57.790Z,78.01
2023-04-19T05:05:24.738Z,78.09
2023-04-19T05:07:51.362Z,78.56
2023-04-19T05:10:18.173Z,78.54
2023-04-19T05:12:47.062Z,78.41
2023-04-19T05:15:13.723Z,78.40
2023-04-19T05:17:46.861Z,77.89
2023-04-19T05:20:13.947Z,77.75
2023-04-19T05:22:41.390Z,77.64
2023-04-19T05:25:10.577Z,77.07
2023-04-19T05:27:37.755Z,77.10
2023-04-19T05:30:06.320Z,77.62
2023-04-19T05:32:34.372Z,77.12
2023-04-19T05:35:06.170Z,76.76
2023-04-19T05:37:32.820Z,77.10
2023-04-19T05:39:59.403Z,77.13
2023-04-19T05:42:26.010Z,76.40
2023-04-19T05:44:52.489Z,76.10
2023-04-19T05:47:19.926Z,75.98
2023-04-19T05:50:08.855Z,75.69
2023-04-19T05:52:39.622Z,76.11
2023-04-19T05:55:06.647Z,75.31
2023-04-19T05:57:34.571Z,76.11
2023-04-19T06:00:01.367Z,76.40
2023-04-19T06:02:40.049Z,75.58
2023-04-19T06:05:11.107Z,75.32
2023-04-19T06:07:43.392Z,74.34
2023-04-19T06:10:14.161Z,73.83
2023-04-19T06:12:40.688Z,73.33
2023-04-19T06:15:08.278Z,73.41
2023-04-19T06:17:35.238Z,72.61
2023-04-19T06:20:01.927Z,72.37
2023-04-19T06:22:29.762Z,72.49
2023-04-19T06:24:56.283Z,73.18
2023-04-19T06:27:22.779Z,72.48
2023-04-19T06:29:51.096Z,71.77
2023-04-19T06:32:18.008Z,71.07
2023-04-19T06:34:44.636Z,71.37
2023-04-19T06:37:11.329Z,70.73
2023-04-19T06:39:39.331Z,70.52
2023-04-19T06:42:05.823Z,68.64
2023-04-19T06:44:33.212Z,68.85
2023-04-19T06:46:59.760Z,69.44
2023-04-19T06:49:26.363Z,67.82
2023-04-19T06:51:52.854Z,67.18
2023-04-19T06:54:19.759Z,67.88
2023-04-19T06:56:49.234Z,67.41
2023-04-19T06:59:17.330Z,66.52
2023-04-19T07:01:44.185Z,66.56
2023-04-19T07:04:11.328Z,66.39
2023-04-19T07:06:38.728Z,66.26
2023-04-19T07:09:06.772Z,64.76
2023-04-19T07:11:33.484Z,66.20
2023-04-19T07:14:01.584Z,66.32
2023-04-19T07:16:28.199Z,66.58
2023-04-19T07:18:54.900Z,65.20
2023-04-19T07:21:21.625Z,65.50
2023-04-19T07:23:48.170Z,63.83
2023-04-19T07:26:14.665Z,64.66
2023-04-19T07:28:41.448Z,63.53
2023-04-19T07:31:14.851Z,63.48
2023-04-19T07:33:41.396Z,63.78
2023-04-19T07:36:08.161Z,63.02
2023-04-19T07:38:34.771Z,61.60
2023-04-19T07:41:01.296Z,62.11
2023-04-19T07:43:29.796Z,61.78
2023-04-19T07:45:56.345Z,62.31
2023-04-19T07:48:24.392Z,61.02
2023-04-19T07:50:50.906Z,58.52
2023-04-19T07:53:17.454Z,59.14
2023-04-19T07:55:44.049Z,58.59
2023-04-19T07:58:11.130Z,59.12
2023-04-19T08:00:37.660Z,57.91
2023-04-19T08:03:04.464Z,56.68
2023-04-19T08:05:32.944Z,55.82
2023-04-19T08:07:59.693Z,56.61
2023-04-19T08:10:26.405Z,55.98
2023-04-19T08:13:05.346Z,54.47
2023-04-19T08:18:03.281Z,54.12
2023-04-19T08:20:29.847Z,55.18
2023-04-19T08:22:59.160Z,53.83
2023-04-19T08:25:27.117Z,51.38
2023-04-19T08:27:53.642Z,52.33
2023-04-19T08:30:20.409Z,52.75
2023-04-19T08:32:46.990Z,51.93
2023-04-19T08:35:13.876Z,51.65
2023-04-19T08:37:40.638Z,53.00
2023-04-19T08:40:09.374Z,53.42
2023-04-19T08:42:37.083Z,51.88
2023-04-19T08:47:44.905Z,51.50
2023-04-19T08:50:31.216Z,52.07
2023-04-19T08:55:29.289Z,50.80
2023-04-19T08:57:56.804Z,47.86
2023-04-19T09:00:23.416Z,49.43
2023-04-19T09:02:51.669Z,47.82
2023-04-19T09:05:19.436Z,48.80
2023-04-19T09:07:47.122Z,47.92
2023-04-19T09:10:16.032Z,48.50
2023-04-19T09:12:58.955Z,47.98
2023-04-19T09:15:36.098Z,47.53
2023-04-19T09:18:04.715Z,48.59
2023-04-19T09:20:36.384Z,46.19
2023-04-19T09:23:03.714Z,45.85
2023-04-19T09:25:47.151Z,44.31
2023-04-19T09:28:18.104Z,45.60
2023-04-19T09:30:58.313Z,46.47
2023-04-19T09:33:33.972Z,43.96
2023-04-19T09:36:01.503Z,45.48
2023-04-19T09:38:28.346Z,46.88
2023-04-19T09:41:06.366Z,46.11
2023-04-19T09:43:55.921Z,45.36
2023-04-19T09:46:31.470Z,44.82
2023-04-19T09:49:23.072Z,44.65
2023-04-19T09:51:55.497Z,43.80
2023-04-19T09:54:23.801Z,45.36
2023-04-19T09:56:51.324Z,44.66
2023-04-19T09:59:21.187Z,45.78
2023-04-19T10:01:54.136Z,46.43
2023-04-19T10:04:32.767Z,45.63
2023-04-19T10:07:29.046Z,44.69
2023-04-19T10:10:02.460Z,43.37
2023-04-19T10:12:59.169Z,44.04
2023-04-19T10:15:33.830Z,44.68
2023-04-19T10:18:10.395Z,42.96
2023-04-19T10:20:41.914Z,43.09
2023-04-19T10:23:08.435Z,43.12
2023-04-19T10:25:37.311Z,42.90
2023-04-19T10:28:04.520Z,42.87
2023-04-19T10:30:32.387Z,42.22
2023-04-19T10:33:00.093Z,43.04
2023-04-19T10:35:28.601Z,41.77
2023-04-19T10:38:09.170Z,40.65
2023-04-19T10:40:57.796Z,39.54
2023-04-19T10:43:25.520Z,38.57
2023-04-19T10:45:53.843Z,41.12
2023-04-19T10:48:50.734Z,41.03
2023-04-19T10:51:18.104Z,37.53
2023-04-19T10:53:55.917Z,37.55
2023-04-19T10:56:59.058Z,38.34
2023-04-19T10:59:26.485Z,36.59
2023-04-19T11:01:56.738Z,33.24
2023-04-19T11:04:39.926Z,34.89
2023-04-19T11:07:07.777Z,34.89
2023-04-19T11:09:35.432Z,34.80
2023-04-19T11:12:04.581Z,36.29
2023-04-19T11:14:33.847Z,35.35
2023-04-19T11:17:13.810Z,35.60
2023-04-19T11:19:42.738Z,35.31
2023-04-19T11:22:09.272Z,35.68
2023-04-19T11:24:35.882Z,36.83
2023-04-19T11:27:08.163Z,37.42
2023-04-19T11:29:34.842Z,38.18
2023-04-19T11:32:03.854Z,37.81
2023-04-19T11:34:34.975Z,37.27
2023-04-19T11:37:01.538Z,36.11
2023-04-19T11:39:28.033Z,35.18
2023-04-19T11:41:54.554Z,36.58
2023-04-19T11:44:21.025Z,37.30
2023-04-19T11:47:04.311Z,36.50
2023-04-19T11:49:33.171Z,36.44
2023-04-19T11:52:03.113Z,36.88
2023-04-19T11:54:31.997Z,34.81
2023-04-19T11:57:03.415Z,33.12
2023-04-19T11:59:31.005Z,33.14
2023-04-19T12:02:07.116Z,33.74
2023-04-19T12:04:34.061Z,33.48
2023-04-19T12:07:02.216Z,32.20
2023-04-19T12:09:28.896Z,32.59
2023-04-19T12:11:55.917Z,31.87
2023-04-19T12:14:23.414Z,33.93
2023-04-19T12:17:09.204Z,32.81
2023-04-19T12:19:36.884Z,30.82
2023-04-19T12:22:11.080Z,30.96
2023-04-19T12:24:38.094Z,30.54
2023-04-19T12:27:04.685Z,32.43
2023-04-19T12:29:31.857Z,32.14
2023-04-19T12:31:58.459Z,30.61
2023-04-19T12:34:26.610Z,29.08
2023-04-19T12:36:53.272Z,29.81
2023-04-19T12:39:19.867Z,29.35
2023-04-19T12:41:46.355Z,30.23
2023-04-19T12:44:12.944Z,28.44
2023-04-19T12:46:39.789Z,27.71
2023-04-19T12:49:06.550Z,26.41
2023-04-19T12:51:34.394Z,28.45
2023-04-19T12:54:00.967Z,27.14
2023-04-19T12:56:27.476Z,26.64
2023-04-19T12:58:54.096Z,25.25
2023-04-19T13:01:20.986Z,26.78
2023-04-19T13:03:47.801Z,26.28
2023-04-19T13:06:14.442Z,25.98
2023-04-19T13:08:47.119Z,26.13
2023-04-19T13:11:15.378Z,24.98
2023-04-19T13:13:42.033Z,24.43
2023-04-19T13:16:08.979Z,26.59
2023-04-19T13:18:35.526Z,27.08
2023-04-19T13:21:02.152Z,26.34
2023-04-19T13:23:28.631Z,24.56
2023-04-19T13:25:56.546Z,24.96
2023-04-19T13:28:23.153Z,25.78
2023-04-19T13:30:49.876Z,24.44
2023-04-19T13:33:16.407Z,24.60
2023-04-19T13:35:42.946Z,23.77
2023-04-19T13:38:09.639Z,24.88
2023-04-19T13:40:36.254Z,22.88
2023-04-19T13:43:04.118Z,23.86
2023-04-19T13:45:30.676Z,23.73
2023-04-19T13:47:57.217Z,22.81
2023-04-19T13:50:23.840Z,25.03
2023-04-19T13:52:50.389Z,23.01
2023-04-19T13:55:17.016Z,24.18
2023-04-19T13:57:43.480Z,22.01
2023-04-19T14:00:12.373Z,22.63
2023-04-19T14:02:39.469Z,25.10
2023-04-19T14:05:06.961Z,23.25
2023-04-19T14:36:55.024Z,24.76
2023-04-19T14:39:21.633Z,24.04
2023-04-19T14:41:48.131Z,24.40
2023-04-19T14:44:14.740Z,25.14
2023-04-19T14:46:41.261Z,23.40
2023-04-19T14:49:07.822Z,24.31
2023-04-19T14:51:34.363Z,24.11
2023-04-19T14:54:02.294Z,23.67
2023-04-19T14:56:28.792Z,23.14
2023-04-19T14:58:55.361Z,22.26
2023-04-19T15:01:22.048Z,23.59
2023-04-19T15:03:48.901Z,23.54
2023-04-19T15:06:15.688Z,24.04
2023-04-19T15:08:42.322Z,23.93
2023-04-19T15:11:10.167Z,23.88
2023-04-19T15:13:36.758Z,23.95
2023-04-19T15:16:03.619Z,21.94
2023-04-19T15:18:30.344Z,21.97
2023-04-19T15:20:56.861Z,22.76
2023-04-19T15:23:24.505Z,23.36
2023-04-19T15:25:51.230Z,23.67
2023-04-19T15:28:19.201Z,23.54
2023-04-19T15:30:47.923Z,22.52
2023-04-19T15:33:14.596Z,23.23
2023-04-19T15:35:41.125Z,22.45
2023-04-19T15:38:07.721Z,23.65
2023-04-19T15:40:34.222Z,23.09
2023-04-19T15:43:00.763Z,23.36
2023-04-19T15:45:28.662Z,22.59
2023-04-19T15:47:55.373Z,22.53
2023-04-19T15:50:22.189Z,22.50
2023-04-19T15:52:48.751Z,23.24
2023-04-19T15:55:15.426Z,22.21
2023-04-19T15:57:42.039Z,21.34
2023-04-19T16:00:09.517Z,21.41
2023-04-19T16:02:40.386Z,23.33
2023-04-19T16:05:08.149Z,22.00
2023-04-19T16:07:34.653Z,22.22
2023-04-19T16:10:01.240Z,21.99
2023-04-19T16:12:27.834Z,21.66
2023-04-19T16:14:54.488Z,23.14
2023-04-19T16:17:20.997Z,22.88
2023-04-19T16:19:49.020Z,22.80
2023-04-19T16:22:15.547Z,22.14
2023-04-19T16:24:42.192Z,21.74
2023-04-19T16:27:08.880Z,22.58
2023-04-19T16:29:35.412Z,22.41
2023-04-19T16:32:01.971Z,21.73
2023-04-19T16:34:28.658Z,22.04
2023-04-19T16:36:56.785Z,22.58
2023-04-19T16:39:23.422Z,21.81
2023-04-19T16:41:50.143Z,22.42
2023-04-19T16:44:16.727Z,22.85
2023-04-19T16:46:43.233Z,22.48
2023-04-19T16:49:09.846Z,22.87
2023-04-19T16:51:36.371Z,22.34
2023-04-19T16:54:04.395Z,22.26
2023-04-19T16:56:30.978Z,22.27
2023-04-19T16:58:57.558Z,21.80
2023-04-19T17:01:24.148Z,22.35
2023-04-19T17:03:51.050Z,23.22
2023-04-19T17:06:17.768Z,22.82
2023-04-19T17:08:44.586Z,21.96
2023-04-19T17:11:12.623Z,23.46
2023-04-19T17:13:39.226Z,23.31
2023-04-19T17:16:07.135Z,22.88
2023-04-19T17:18:33.786Z,23.51
2023-04-19T17:21:00.344Z,23.53
2023-04-19T17:23:26.917Z,23.48
2023-04-19T17:25:53.426Z,24.04
2023-04-19T17:28:21.758Z,24.99
2023-04-19T17:30:48.273Z,25.64
2023-04-19T17:33:14.892Z,26.28
2023-04-19T17:35:41.405Z,25.56
2023-04-19T17:38:08.218Z,25.81
2023-04-19T17:40:34.740Z,26.08
2023-04-19T17:43:01.286Z,26.09
2023-04-19T17:45:29.208Z,26.37
2023-04-19T17:47:56.234Z,26.55
2023-04-19T17:50:22.968Z,26.61
2023-04-19T17:52:49.511Z,26.73
2023-04-19T17:55:16.032Z,27.08
2023-04-19T17:57:45.154Z,28.37
2023-04-19T18:00:12.659Z,27.97
2023-04-19T18:02:40.837Z,28.06
2023-04-19T18:05:07.833Z,28.60
2023-04-19T18:07:35.178Z,29.47
2023-04-19T18:10:01.930Z,29.51
2023-04-19T18:12:28.559Z,29.31
2023-04-19T18:14:55.093Z,29.10
2023-04-19T18:17:21.724Z,29.65
2023-04-19T18:19:49.620Z,29.67
2023-04-19T18:22:16.367Z,29.56
2023-04-19T18:24:43.318Z,30.06
2023-04-19T18:27:09.866Z,30.35
2023-04-19T18:29:36.385Z,30.61
2023-04-19T18:32:03.112Z,30.87
2023-04-19T18:34:29.662Z,30.96
2023-04-19T18:37:00.335Z,32.13
2023-04-19T18:39:27.468Z,31.85
2023-04-19T18:41:55.790Z,32.51
2023-04-19T18:44:44.071Z,32.94
2023-04-19T18:47:10.162Z,33.22
2023-04-19T18:49:36.673Z,32.84
2023-04-19T18:52:05.089Z,34.92
2023-04-19T18:54:31.609Z,35.69
2023-04-19T18:57:21.680Z,36.08
2023-04-19T18:59:44.805Z,35.08
2023-04-19T19:02:11.698Z,35.14
2023-04-19T19:04:52.181Z,35.74
2023-04-19T19:07:35.818Z,36.81
2023-04-19T19:10:17.017Z,37.54
2023-04-19T19:12:44.770Z,37.71
2023-04-19T19:15:11.438Z,38.32
2023-04-19T19:17:38.365Z,39.06
2023-04-19T19:20:06.440Z,39.44
2023-04-19T19:22:34.863Z,39.50
2023-04-19T19:25:01.480Z,40.13
2023-04-19T19:27:28.154Z,41.38
2023-04-19T19:29:54.841Z,41.54
2023-04-19T19:32:21.469Z,42.53
2023-04-19T19:37:17.773Z,44.10
2023-04-19T19:39:46.314Z,44.74
2023-04-19T19:42:15.776Z,44.96
2023-04-19T19:44:43.688Z,45.73
2023-04-19T19:47:11.110Z,45.75
2023-04-19T19:52:07.776Z,47.10
2023-04-19T19:54:34.388Z,47.13
2023-04-19T19:59:34.932Z,48.36
2023-04-19T20:02:01.977Z,49.08
2023-04-19T20:04:28.943Z,48.97
2023-04-19T20:09:25.195Z,49.52
2023-04-19T20:11:52.127Z,50.14
2023-04-19T20:14:22.101Z,50.50
2023-04-19T20:16:48.680Z,51.03
2023-04-19T20:19:15.418Z,50.98
2023-04-19T20:21:42.189Z,51.56
2023-04-19T20:24:08.806Z,51.75
2023-04-19T20:26:35.460Z,52.41
2023-04-19T20:29:02.014Z,52.78
2023-04-19T20:31:30.313Z,52.81
2023-04-19T20:33:56.887Z,53.82
2023-04-19T20:36:23.527Z,52.98
2023-04-19T20:38:50.781Z,53.12
2023-04-19T20:41:17.920Z,53.48
2023-04-19T20:43:44.491Z,54.24
2023-04-19T20:46:11.446Z,55.25
2023-04-19T20:48:39.412Z,54.19
2023-04-19T20:51:05.999Z,55.12
2023-04-19T20:53:32.685Z,55.01
2023-04-19T20:55:59.215Z,55.62
2023-04-19T20:58:25.781Z,55.89
2023-04-19T21:00:52.607Z,56.54
2023-04-19T21:03:19.316Z,56.31
2023-04-19T21:05:47.304Z,56.62
2023-04-19T21:08:13.832Z,57.11
2023-04-19T21:10:40.346Z,57.08
2023-04-19T21:13:06.870Z,57.14
2023-04-19T21:15:33.493Z,57.19
2023-04-19T21:18:00.104Z,57.27
2023-04-19T21:20:26.916Z,57.60
2023-04-19T21:22:54.820Z,57.67
2023-04-19T21:25:21.476Z,57.71
2023-04-19T21:27:48.000Z,57.41
2023-04-19T21:30:14.752Z,57.75
2023-04-19T21:32:41.576Z,58.35
2023-04-19T21:35:09.045Z,58.61
2023-04-19T21:37:36.193Z,58.44
2023-04-19T21:40:04.932Z,59.07
2023-04-19T21:42:31.468Z,59.25
2023-04-19T21:44:58.069Z,59.35
2023-04-19T21:47:24.653Z,59.52
2023-04-19T21:49:51.200Z,59.78
2023-04-19T21:52:17.879Z,60.16
2023-04-19T21:54:44.509Z,60.46
2023-04-19T21:57:12.381Z,60.11
2023-04-19T21:59:38.938Z,60.25
2023-04-19T22:02:05.575Z,61.13
2023-04-19T22:04:32.284Z,61.10
2023-04-19T22:06:59.198Z,61.34
2023-04-19T22:09:25.724Z,61.44
2023-04-19T22:11:52.267Z,61.46
2023-04-19T22:14:20.243Z,62.44
2023-04-19T22:16:46.809Z,62.84
2023-04-19T22:19:13.356Z,62.61
2023-04-19T22:21:39.939Z,63.31
2023-04-19T22:24:07.501Z,62.90
2023-04-19T22:26:34.126Z,62.80
2023-04-19T22:29:00.665Z,62.73
2023-04-19T22:31:28.631Z,62.81
2023-04-19T22:33:55.216Z,63.12
2023-04-19T22:36:21.779Z,63.44
2023-04-19T22:38:48.295Z,63.84
2023-04-19T22:41:15.029Z,63.99
2023-04-19T22:43:41.612Z,64.78
2023-04-19T22:46:08.189Z,65.21
2023-04-19T22:48:36.064Z,65.25
2023-04-19T22:51:02.673Z,65.72
2023-04-19T22:53:29.284Z,65.66
2023-04-19T22:55:55.819Z,65.56
2023-04-19T22:58:22.434Z,65.87
2023-04-19T23:00:49.559Z,65.87
2023-04-19T23:03:16.253Z,65.99
2023-04-19T23:05:44.186Z,66.54
2023-04-19T23:08:10.730Z,66.37
2023-04-19T23:10:37.255Z,67.16
2023-04-19T23:13:03.840Z,67.07
2023-04-19T23:15:30.707Z,67.67
2023-04-19T23:17:57.332Z,67.74
2023-04-19T23:20:23.969Z,68.28
2023-04-19T23:22:51.841Z,68.37
2023-04-19T23:25:18.369Z,68.88
2023-04-19T23:27:44.909Z,69.13
2023-04-19T23:30:11.913Z,69.33
2023-04-19T23:32:38.502Z,69.62
2023-04-19T23:35:05.645Z,69.72
2023-04-19T23:37:32.170Z,69.50
2023-04-19T23:40:00.105Z,69.35
2023-04-19T23:42:26.725Z,68.99
2023-04-19T23:44:53.235Z,69.29
2023-04-19T23:47:19.915Z,69.31
2023-04-19T23:49:46.523Z,69.77
2023-04-19T23:52:13.132Z,70.38
2023-04-19T23:54:39.664Z,70.45
2023-04-19T23:57:07.628Z,69.62
2023-04-19T23:59:34.153Z,69.91
